< Typhoon 196702 1967 Season Typhoon 196704 >
Typhoon 196703 (THERESE)
General InformationTrack Information on Google Maps || Disaster Info.ResourceGoogle EarthGE AnimationAtom FeedGeoJSON
Detalied Best Track (Time Zone = UTC)
Year Month Day Hour Lat. Long. Pressure (hPa) Wind (kt) Class Image Chart
1967 3 15 18 7.8 148.0 1004 0 2 -- Chart
1967 3 16 00 8.2 147.0 1004 0 2 -- Chart
1967 3 16 06 8.9 146.0 1002 0 2 -- Chart
1967 3 16 12 9.1 145.6 1000 0 9 -- Chart
1967 3 16 18 9.8 144.2 1000 0 9 -- Chart
1967 3 17 00 9.9 142.9 1000 0 9 -- Chart
1967 3 17 06 10.1 142.0 998 0 9 -- Chart
1967 3 17 12 10.2 141.1 998 0 9 -- Chart
1967 3 17 18 10.3 140.4 996 0 9 -- Chart
1967 3 18 00 10.6 139.9 996 0 9 -- Chart
1967 3 18 06 11.0 139.5 994 0 9 -- Chart
1967 3 18 12 11.4 139.7 994 0 9 -- Chart
1967 3 18 18 12.1 139.7 994 0 9 -- Chart
1967 3 19 00 12.8 139.3 992 0 9 -- Chart
1967 3 19 06 13.3 139.3 990 0 9 -- Chart
1967 3 19 12 13.9 139.6 994 0 9 -- Chart
1967 3 19 18 14.4 140.1 996 0 9 -- Chart
1967 3 20 00 14.8 140.9 994 0 9 -- Chart
1967 3 20 06 14.9 141.8 992 0 9 -- Chart
1967 3 20 12 14.9 142.8 994 0 9 -- Chart
1967 3 20 18 15.0 143.7 995 0 9 -- Chart
1967 3 21 00 15.3 145.4 995 0 9 -- Chart
1967 3 21 06 15.9 146.6 996 0 9 -- Chart
1967 3 21 12 16.3 147.7 996 0 9 -- Chart
1967 3 21 18 16.6 148.5 996 0 9 -- Chart
1967 3 22 00 16.7 149.1 997 0 9 -- Chart
1967 3 22 06 17.3 149.6 998 0 9 -- Chart
1967 3 22 12 18.2 150.0 998 0 9 -- Chart
1967 3 22 18 19.2 150.4 998 0 9 -- Chart
1967 3 23 00 19.9 150.2 1000 0 9 -- Chart
1967 3 23 06 20.5 150.2 1000 0 9 -- Chart
1967 3 23 12 21.0 150.5 1000 0 9 -- Chart
1967 3 23 18 21.4 150.9 1002 0 9 -- Chart
1967 3 24 00 21.6 151.5 1004 0 9 -- Chart
1967 3 24 06 22.5 152.7 1004 0 9 -- Chart
1967 3 24 12 23.8 154.5 1006 0 9 -- Chart
1967 3 24 18 25.0 156.0 1008 0 9 -- Chart
1967 3 25 00 26.0 158.0 1010 0 6 -- Chart
1967 3 25 06 27.0 160.0 1014 0 6 -- Chart
1967 3 25 12 28.5 162.5 1014 0 6 -- Chart
1967 3 25 18 30.0 166.0 1020 0 6 -- Chart
1967 3 26 00 32.0 170.0 1022 0 6 -- Chart
1967 3 26 06 35.0 176.0 1020 0 6 -- Chart
1967 3 26 12 38.0 181.0 1020 0 6 -- Chart
Japan Meteorological Agency Best Track Data | Correction Date : 1991-07-16
< Typhoon 196702 1967 Season Typhoon 196704 >

Help